Time;durP1;ratioP1;P1;durP2;ratioP2;P2;SDS_P1;SDS_P2;PMS_P1;PMS_P2;Temp;Humidity;BMP_temperature;BMP_pressure;BME280_temperature;BME280_humidity;BME280_pressure;Samples;Min_cycle;Max_cycle;Signal;HPM_P1;HPM_P2
2023/07/20 00:02:33;;;;;;;5.40;2.00;;;14.80;99.90;;;;;;5015255;28;20124;-81
2023/07/20 00:04:58;;;;;;;5.28;2.05;;;14.80;99.90;;;;;;4997089;28;20096;-82
2023/07/20 00:07:25;;;;;;;6.43;2.15;;;14.80;99.90;;;;;;4996616;28;20054;-81
2023/07/20 00:09:51;;;;;;;5.70;2.00;;;15.00;99.90;;;;;;4997589;28;20052;-81
2023/07/20 00:12:22;;;;;;;7.32;2.08;;;14.80;99.90;;;;;;4997058;28;20053;-81
2023/07/20 00:14:53;;;;;;;6.22;2.08;;;14.70;99.90;;;;;;5015214;28;20493;-81
2023/07/20 00:17:22;;;;;;;7.18;2.20;;;14.80;99.90;;;;;;4997423;28;20042;-81
2023/07/20 00:19:53;;;;;;;7.05;2.28;;;14.80;99.90;;;;;;4997089;28;20038;-81
2023/07/20 00:22:19;;;;;;;6.00;2.10;;;14.80;99.90;;;;;;4996482;28;20096;-81
2023/07/20 00:24:45;;;;;;;6.05;2.15;;;15.00;99.90;;;;;;5014578;28;20405;-82
2023/07/20 00:27:31;;;;;;;6.30;2.35;;;14.90;99.90;;;;;;4997267;28;20105;-81
2023/07/20 00:29:56;;;;;;;6.45;2.30;;;14.70;99.90;;;;;;5018857;28;20143;-81
2023/07/20 00:32:22;;;;;;;6.07;2.05;;;15.40;99.90;;;;;;5016549;28;20572;-81
2023/07/20 00:34:48;;;;;;;8.82;2.42;;;14.70;99.90;;;;;;5020321;28;20378;-81
2023/07/20 00:37:29;;;;;;;6.55;2.30;;;14.70;99.90;;;;;;5015597;28;20042;-81
2023/07/20 00:39:57;;;;;;;6.57;2.30;;;14.70;99.90;;;;;;5034186;28;20049;-81
2023/07/20 00:42:25;;;;;;;6.95;2.50;;;14.70;99.90;;;;;;5033426;28;20117;-81
2023/07/20 00:44:56;;;;;;;7.90;2.78;;;14.70;99.90;;;;;;5016100;28;20072;-82
2023/07/20 00:47:22;;;;;;;8.60;2.75;;;15.50;99.90;;;;;;5016352;28;20163;-81
2023/07/20 00:49:49;;;;;;;7.32;2.90;;;14.60;99.90;;;;;;5040509;23;20681;-81
2023/07/20 00:52:15;;;;;;;7.13;3.00;;;14.60;99.90;;;;;;5016810;28;20409;-81
2023/07/20 00:54:41;;;;;;;8.35;3.00;;;14.70;99.90;;;;;;5033710;28;20045;-81
2023/07/20 00:57:08;;;;;;;7.85;3.15;;;14.70;99.90;;;;;;5014960;28;20041;-82
2023/07/20 00:59:35;;;;;;;7.25;2.85;;;14.60;99.90;;;;;;5015541;28;20080;-81
2023/07/20 01:02:02;;;;;;;7.82;2.97;;;14.60;99.90;;;;;;5033948;28;20045;-81
2023/07/20 01:04:28;;;;;;;7.47;3.17;;;14.60;99.90;;;;;;5032999;28;20505;-82
2023/07/20 01:07:20;;;;;;;7.95;3.03;;;15.50;99.90;;;;;;5033874;28;20470;-81
2023/07/20 01:10:01;;;;;;;6.78;2.70;;;14.60;99.90;;;;;;5032399;28;20049;-82
2023/07/20 01:12:35;;;;;;;8.68;2.97;;;14.60;99.90;;;;;;5014466;28;20504;-81
2023/07/20 01:15:01;;;;;;;8.23;2.90;;;14.60;99.90;;;;;;5015906;28;20512;-82
2023/07/20 01:17:27;;;;;;;7.20;2.90;;;14.60;99.90;;;;;;5014817;28;20073;-82
2023/07/20 01:19:53;;;;;;;7.38;2.65;;;14.60;99.90;;;;;;5015575;28;20072;-82
2023/07/20 01:22:40;;;;;;;6.88;2.65;;;14.60;99.90;;;;;;5015991;28;20119;-81
2023/07/20 01:25:21;;;;;;;7.03;2.78;;;14.50;99.90;;;;;;5015286;28;20081;-81
2023/07/20 01:28:05;;;;;;;7.22;2.60;;;14.50;99.90;;;;;;5034889;28;20049;-82
2023/07/20 01:30:52;;;;;;;8.00;2.50;;;14.60;99.90;;;;;;5015426;28;20049;-81
2023/07/20 01:33:19;;;;;;;6.43;2.50;;;14.50;99.90;;;;;;5032463;28;20368;-82
2023/07/20 01:35:48;;;;;;;6.35;2.45;;;14.50;99.90;;;;;;5015711;28;20049;-82
2023/07/20 01:38:16;;;;;;;7.55;2.58;;;14.50;99.90;;;;;;5031569;28;20057;-81
2023/07/20 01:40:42;;;;;;;7.97;2.63;;;14.50;99.90;;;;;;5015117;28;20046;-82
2023/07/20 01:43:07;;;;;;;6.70;2.47;;;14.50;99.90;;;;;;5032144;28;20090;-81
2023/07/20 01:45:33;;;;;;;6.63;2.42;;;14.50;99.90;;;;;;5032434;28;20143;-81
2023/07/20 01:47:58;;;;;;;7.75;2.83;;;14.50;99.90;;;;;;5015329;28;20045;-82
2023/07/20 01:50:24;;;;;;;6.70;2.50;;;15.00;99.90;;;;;;5033137;28;20057;-82
2023/07/20 01:52:49;;;;;;;6.50;2.40;;;15.10;99.90;;;;;;5032359;28;20086;-82
2023/07/20 01:55:15;;;;;;;7.65;2.40;;;14.40;99.90;;;;;;5015716;28;20041;-82
2023/07/20 01:57:41;;;;;;;8.95;2.83;;;14.40;99.90;;;;;;5032983;28;20129;-82
2023/07/20 02:00:09;;;;;;;6.90;2.50;;;14.40;99.90;;;;;;5032051;28;20091;-81
2023/07/20 02:02:35;;;;;;;8.35;2.60;;;14.30;99.90;;;;;;5010997;28;20081;-81
2023/07/20 02:05:00;;;;;;;7.68;3.00;;;14.30;99.90;;;;;;4995419;28;20120;-82
2023/07/20 02:07:26;;;;;;;7.80;3.10;;;14.30;99.90;;;;;;4994611;28;20049;-82
2023/07/20 02:09:52;;;;;;;7.20;2.80;;;14.90;99.90;;;;;;5013006;28;20054;-82
2023/07/20 02:12:17;;;;;;;7.50;2.90;;;14.20;99.90;;;;;;5012888;28;20042;-81
2023/07/20 02:14:43;;;;;;;7.85;3.10;;;14.10;99.90;;;;;;5010996;28;20394;-81
2023/07/20 02:17:10;;;;;;;7.43;3.15;;;14.10;99.90;;;;;;5012872;28;20044;-81
2023/07/20 02:19:37;;;;;;;9.63;3.80;;;14.50;99.90;;;;;;4995238;28;20061;-81
2023/07/20 02:22:02;;;;;;;7.70;3.50;;;14.00;99.90;;;;;;4997752;28;20478;-81
2023/07/20 02:24:28;;;;;;;8.75;3.58;;;13.90;99.90;;;;;;5003580;28;20068;-81
2023/07/20 02:26:54;;;;;;;9.90;4.30;;;13.80;99.90;;;;;;5012873;28;20385;-81
2023/07/20 02:29:19;;;;;;;8.98;4.47;;;13.80;99.90;;;;;;4994337;28;20061;-81
2023/07/20 02:31:45;;;;;;;10.65;3.90;;;13.70;99.90;;;;;;4994782;28;20133;-81
2023/07/20 02:34:11;;;;;;;9.05;4.22;;;13.60;99.90;;;;;;5012923;28;20088;-82
2023/07/20 02:36:36;;;;;;;10.27;4.30;;;13.60;99.90;;;;;;4993978;28;20044;-82
2023/07/20 02:39:03;;;;;;;9.65;4.43;;;13.50;99.90;;;;;;4995330;28;20111;-81
2023/07/20 02:41:30;;;;;;;9.38;4.70;;;13.50;99.90;;;;;;4994666;28;20046;-81
2023/07/20 02:43:56;;;;;;;10.75;5.22;;;13.50;99.90;;;;;;5023036;28;20045;-81
2023/07/20 02:46:22;;;;;;;11.05;5.50;;;13.40;99.90;;;;;;5014346;28;20046;-81
2023/07/20 02:48:47;;;;;;;9.25;5.35;;;13.40;99.90;;;;;;5031354;28;20045;-81
2023/07/20 02:51:13;;;;;;;10.35;5.50;;;13.60;99.90;;;;;;5013702;28;20088;-81
2023/07/20 02:53:39;;;;;;;11.20;5.88;;;13.30;99.90;;;;;;5014490;28;20072;-81
2023/07/20 02:56:05;;;;;;;11.30;6.50;;;13.30;99.90;;;;;;5030717;28;20045;-81
2023/07/20 02:58:30;;;;;;;11.77;6.22;;;13.30;99.90;;;;;;5031416;28;20045;-81
2023/07/20 03:00:56;;;;;;;11.63;6.82;;;13.20;99.90;;;;;;5014428;28;20041;-81
2023/07/20 03:03:22;;;;;;;11.65;6.82;;;13.20;99.90;;;;;;5013898;28;20077;-81
2023/07/20 03:05:54;;;;;;;12.80;7.70;;;13.20;99.90;;;;;;5031628;28;20045;-81
2023/07/20 03:08:19;;;;;;;17.00;8.40;;;13.40;99.90;;;;;;5014338;28;20080;-81
2023/07/20 03:10:45;;;;;;;15.38;7.97;;;13.10;99.90;;;;;;5013166;28;20041;-81
2023/07/20 03:13:12;;;;;;;12.98;7.93;;;13.10;99.90;;;;;;5032580;28;20041;-81
2023/07/20 03:15:38;;;;;;;15.70;8.13;;;13.10;99.90;;;;;;5013793;28;20056;-81
2023/07/20 03:18:04;;;;;;;14.27;8.30;;;13.10;99.90;;;;;;5013641;28;20037;-81
2023/07/20 03:20:30;;;;;;;13.07;7.97;;;13.00;99.90;;;;;;5014282;28;20056;-81
2023/07/20 03:22:56;;;;;;;14.27;8.38;;;13.90;99.90;;;;;;5032307;28;20060;-81
2023/07/20 03:25:22;;;;;;;13.75;8.23;;;13.00;99.90;;;;;;5013187;28;20037;-81
2023/07/20 03:27:48;;;;;;;12.82;7.40;;;13.70;99.90;;;;;;5014036;28;20187;-81
2023/07/20 03:30:14;;;;;;;13.80;8.18;;;12.90;99.90;;;;;;5014021;28;20045;-82
2023/07/20 03:32:39;;;;;;;14.48;8.73;;;12.90;99.90;;;;;;5030586;28;20052;-81
2023/07/20 03:35:06;;;;;;;13.90;8.15;;;12.90;99.90;;;;;;5016117;28;20492;-82
2023/07/20 03:37:31;;;;;;;15.05;8.05;;;12.90;99.90;;;;;;5035209;28;20052;-82
2023/07/20 03:39:57;;;;;;;13.45;8.00;;;12.90;99.90;;;;;;5016870;28;20041;-82
2023/07/20 03:42:23;;;;;;;13.20;8.13;;;12.80;99.90;;;;;;5017604;28;20041;-82
2023/07/20 03:44:49;;;;;;;13.23;7.45;;;12.80;99.90;;;;;;5034856;28;20413;-82
2023/07/20 03:47:15;;;;;;;13.73;8.35;;;12.80;99.90;;;;;;5035194;28;20120;-82
2023/07/20 03:49:41;;;;;;;13.65;7.82;;;13.60;99.90;;;;;;5034748;28;20049;-82
2023/07/20 03:52:07;;;;;;;14.15;7.80;;;12.70;99.90;;;;;;5016595;28;20489;-82
2023/07/20 03:54:32;;;;;;;13.30;7.82;;;12.70;99.90;;;;;;5034816;28;20052;-81
2023/07/20 03:56:58;;;;;;;15.27;7.88;;;12.70;99.90;;;;;;5017580;28;20507;-82
2023/07/20 03:59:24;;;;;;;13.68;7.60;;;12.70;99.90;;;;;;5016348;28;20140;-82
2023/07/20 04:01:50;;;;;;;14.02;7.85;;;12.70;99.90;;;;;;5028016;28;20140;-82
2023/07/20 04:04:16;;;;;;;13.20;7.40;;;12.70;99.90;;;;;;5030747;28;20217;-82
2023/07/20 04:06:44;;;;;;;13.77;7.57;;;12.70;99.90;;;;;;5033981;28;20077;-82
2023/07/20 04:09:11;;;;;;;14.05;8.02;;;12.60;99.90;;;;;;5035050;28;20053;-82
2023/07/20 04:11:36;;;;;;;13.05;6.95;;;12.70;99.90;;;;;;5033941;28;20042;-82
2023/07/20 04:14:02;;;;;;;12.18;7.35;;;12.60;99.90;;;;;;5033631;28;20405;-82
2023/07/20 04:16:31;;;;;;;13.07;7.03;;;12.60;99.90;;;;;;5034993;28;20041;-81
2023/07/20 04:18:57;;;;;;;12.80;7.15;;;12.60;99.90;;;;;;5034693;28;20050;-81
2023/07/20 04:21:23;;;;;;;12.23;6.85;;;12.70;99.90;;;;;;5033935;28;20041;-81
2023/07/20 04:23:49;;;;;;;14.60;7.57;;;12.70;99.90;;;;;;5034451;28;20060;-82
2023/07/20 04:26:14;;;;;;;12.68;7.25;;;13.40;99.90;;;;;;5016783;28;20046;-82
2023/07/20 04:28:42;;;;;;;12.63;7.07;;;12.70;99.90;;;;;;5015612;28;20061;-82
2023/07/20 04:31:15;;;;;;;13.20;7.15;;;12.70;99.90;;;;;;5034598;28;20096;-82
2023/07/20 04:33:40;;;;;;;11.80;6.87;;;13.30;99.90;;;;;;5035458;28;20095;-81
2023/07/20 04:36:07;;;;;;;12.25;6.97;;;12.70;99.90;;;;;;5016951;28;20053;-82
2023/07/20 04:38:33;;;;;;;12.35;6.55;;;13.40;99.90;;;;;;5017235;28;20041;-82
2023/07/20 04:40:59;;;;;;;13.05;6.60;;;12.70;99.90;;;;;;5017662;28;20121;-82
2023/07/20 04:43:25;;;;;;;11.32;6.25;;;12.70;99.90;;;;;;5016326;28;20153;-82
2023/07/20 04:45:50;;;;;;;11.98;6.55;;;12.80;99.90;;;;;;5017117;28;20042;-82
2023/07/20 04:48:17;;;;;;;12.40;6.30;;;12.80;99.90;;;;;;5015520;28;20045;-81
2023/07/20 04:50:44;;;;;;;10.90;5.82;;;12.90;99.90;;;;;;5035299;28;20401;-82
2023/07/20 04:53:11;;;;;;;10.23;5.60;;;12.90;99.90;;;;;;5035143;28;20103;-82
2023/07/20 04:55:39;;;;;;;10.10;5.30;;;12.90;99.90;;;;;;5032817;28;20046;-82
2023/07/20 04:58:05;;;;;;;10.13;5.22;;;12.90;99.90;;;;;;5017156;28;20041;-82
2023/07/20 05:00:32;;;;;;;10.27;5.13;;;13.00;99.90;;;;;;5035015;28;20133;-83
2023/07/20 05:02:58;;;;;;;9.75;4.53;;;13.10;99.90;;;;;;5017191;28;20045;-82
2023/07/20 05:05:23;;;;;;;9.52;4.57;;;13.10;99.90;;;;;;5017926;28;20094;-82
2023/07/20 05:08:01;;;;;;;9.25;4.60;;;13.10;99.90;;;;;;5027323;28;20136;-83
2023/07/20 05:10:27;;;;;;;9.43;4.30;;;13.10;99.90;;;;;;5033352;28;20045;-82
2023/07/20 05:12:52;;;;;;;9.43;4.28;;;13.20;99.90;;;;;;5033626;28;20096;-84
2023/07/20 05:15:18;;;;;;;8.23;3.65;;;13.80;99.90;;;;;;5016058;28;20052;-82
2023/07/20 05:17:44;;;;;;;10.27;3.85;;;13.30;99.90;;;;;;5032189;28;20120;-82
2023/07/20 05:20:10;;;;;;;10.50;3.83;;;13.30;99.90;;;;;;5033952;28;20072;-81
2023/07/20 05:22:39;;;;;;;8.23;3.72;;;13.40;99.90;;;;;;5033524;28;20077;-81
2023/07/20 05:25:06;;;;;;;9.55;3.58;;;13.40;99.90;;;;;;5033087;28;20068;-82
2023/07/20 05:27:32;;;;;;;8.95;3.70;;;13.50;99.90;;;;;;5033015;28;20105;-81
2023/07/20 05:29:58;;;;;;;7.75;3.35;;;13.60;99.90;;;;;;5033198;28;20049;-82
2023/07/20 05:32:24;;;;;;;8.05;3.28;;;13.60;99.90;;;;;;5014817;28;20042;-82
2023/07/20 05:34:52;;;;;;;7.97;3.40;;;13.70;99.90;;;;;;5015079;28;20054;-81
2023/07/20 05:37:18;;;;;;;7.97;3.10;;;13.70;99.90;;;;;;5032705;28;20053;-81
2023/07/20 05:39:44;;;;;;;8.32;3.28;;;13.80;99.90;;;;;;5014510;28;20052;-82
2023/07/20 05:42:09;;;;;;;8.38;3.30;;;13.90;99.90;;;;;;5033072;28;20041;-82
2023/07/20 05:44:35;;;;;;;8.70;2.85;;;14.30;99.90;;;;;;5031081;28;20041;-82
2023/07/20 05:47:02;;;;;;;9.77;3.25;;;14.00;99.90;;;;;;5032766;28;20069;-82
2023/07/20 05:49:28;;;;;;;7.82;3.35;;;14.00;99.90;;;;;;5014925;28;20053;-82
2023/07/20 05:51:55;;;;;;;7.25;2.60;;;14.10;99.90;;;;;;5014515;28;20132;-81
2023/07/20 05:54:21;;;;;;;7.60;2.72;;;14.20;99.90;;;;;;5032643;28;20085;-81
2023/07/20 05:56:47;;;;;;;7.55;2.50;;;14.20;99.90;;;;;;5012988;28;20073;-81
2023/07/20 05:59:13;;;;;;;6.32;2.40;;;14.30;99.90;;;;;;5014205;28;20077;-82
2023/07/20 06:01:38;;;;;;;10.60;2.60;;;15.00;99.90;;;;;;5014376;28;20049;-81
2023/07/20 06:04:04;;;;;;;6.90;2.42;;;14.50;99.90;;;;;;5014965;28;20067;-82
2023/07/20 06:06:30;;;;;;;7.68;2.30;;;14.70;99.90;;;;;;5032001;28;20053;-82
2023/07/20 06:08:55;;;;;;;6.40;2.38;;;15.10;99.90;;;;;;5032913;28;20038;-81
2023/07/20 06:11:21;;;;;;;6.90;2.13;;;14.70;99.90;;;;;;5027945;28;20045;-82
2023/07/20 06:13:47;;;;;;;6.80;2.10;;;14.80;99.90;;;;;;5005463;28;20058;-81
2023/07/20 06:16:13;;;;;;;6.95;2.33;;;14.90;99.90;;;;;;5013052;28;20050;-81
2023/07/20 06:18:38;;;;;;;6.53;2.20;;;15.00;99.90;;;;;;4995112;28;20493;-81
2023/07/20 06:21:04;;;;;;;5.90;2.10;;;15.00;99.90;;;;;;4994778;28;20088;-81
2023/07/20 06:23:30;;;;;;;7.65;2.28;;;15.80;99.90;;;;;;4995369;28;20406;-81
2023/07/20 06:25:56;;;;;;;7.22;2.17;;;15.10;99.90;;;;;;5022054;28;20049;-80
2023/07/20 06:28:21;;;;;;;6.68;2.72;;;15.20;99.90;;;;;;5014068;28;20048;-80
2023/07/20 06:30:47;;;;;;;6.72;2.10;;;15.30;99.90;;;;;;5032409;28;20547;-79
2023/07/20 06:33:12;;;;;;;6.50;1.98;;;15.40;99.90;;;;;;5032600;28;20124;-81
2023/07/20 06:35:42;;;;;;;8.18;2.00;;;15.50;99.90;;;;;;5031268;28;20183;-80
2023/07/20 06:38:08;;;;;;;6.53;1.90;;;15.50;99.90;;;;;;5032081;28;20093;-81
2023/07/20 06:40:34;;;;;;;3.38;1.70;;;15.60;99.90;;;;;;5014043;28;20127;-81
2023/07/20 06:42:59;;;;;;;4.18;1.80;;;15.60;99.90;;;;;;5010130;28;20404;-81
2023/07/20 06:45:25;;;;;;;6.35;1.95;;;15.80;99.90;;;;;;5014462;28;20030;-82
2023/07/20 06:47:51;;;;;;;4.93;1.70;;;15.80;99.90;;;;;;5011323;28;20049;-81
2023/07/20 06:50:17;;;;;;;4.45;1.60;;;15.80;99.90;;;;;;4994676;28;20522;-81
2023/07/20 06:52:42;;;;;;;5.68;1.90;;;15.90;99.90;;;;;;5012036;28;20054;-81
2023/07/20 06:55:08;;;;;;;4.82;1.70;;;16.00;99.90;;;;;;4994019;28;20061;-80
2023/07/20 06:57:34;;;;;;;4.05;1.63;;;16.10;99.90;;;;;;5011819;28;20050;-80
2023/07/20 06:59:59;;;;;;;5.18;1.80;;;16.10;99.90;;;;;;5012061;28;20429;-80
2023/07/20 07:02:25;;;;;;;6.90;1.67;;;16.80;99.90;;;;;;5008756;28;20093;-80
2023/07/20 07:04:50;;;;;;;5.22;1.75;;;16.30;99.90;;;;;;5034095;28;20500;-80
2023/07/20 07:07:16;;;;;;;4.25;1.55;;;16.50;99.90;;;;;;5052166;28;20040;-80
2023/07/20 07:09:42;;;;;;;6.88;1.80;;;16.60;99.90;;;;;;5052620;28;20155;-80
2023/07/20 07:12:08;;;;;;;7.63;1.70;;;16.60;99.90;;;;;;5055318;28;20033;-80
2023/07/20 07:14:34;;;;;;;5.80;1.63;;;16.80;99.90;;;;;;5055889;28;20049;-80
2023/07/20 07:17:00;;;;;;;5.78;1.80;;;17.00;99.90;;;;;;5037519;28;20068;-80
2023/07/20 07:19:26;;;;;;;6.88;1.90;;;17.10;99.90;;;;;;5056057;28;20076;-80
2023/07/20 07:21:51;;;;;;;6.15;1.70;;;17.30;99.90;;;;;;5055798;28;20053;-80
2023/07/20 07:24:17;;;;;;;4.90;1.70;;;17.50;99.90;;;;;;5055366;28;20033;-80
2023/07/20 07:26:44;;;;;;;5.35;1.70;;;17.80;99.90;;;;;;5056896;28;20052;-79
2023/07/20 07:29:09;;;;;;;8.73;1.90;;;17.90;99.90;;;;;;5038590;28;20052;-79
2023/07/20 07:31:38;;;;;;;4.43;1.60;;;18.00;99.90;;;;;;5055000;28;20571;-79
2023/07/20 07:34:04;;;;;;;4.70;1.60;;;18.20;99.90;;;;;;5037767;28;20126;-79
2023/07/20 07:36:31;;;;;;;9.23;2.05;;;18.10;99.90;;;;;;5037387;28;20465;-79
2023/07/20 07:38:57;;;;;;;4.68;1.92;;;17.80;99.90;;;;;;5036895;28;20040;-80
2023/07/20 07:41:23;;;;;;;5.78;1.70;;;17.80;99.90;;;;;;5055263;28;20102;-79
2023/07/20 07:43:48;;;;;;;7.30;2.17;;;17.40;99.90;;;;;;5037110;28;20471;-79
2023/07/20 07:46:14;;;;;;;5.22;1.63;;;17.40;99.90;;;;;;5054796;28;20497;-80
2023/07/20 07:48:40;;;;;;;4.18;1.80;;;17.70;99.90;;;;;;5037074;28;20519;-80
2023/07/20 07:51:06;;;;;;;4.45;1.42;;;17.90;99.90;;;;;;5054189;28;20047;-80
2023/07/20 07:53:32;;;;;;;6.18;1.80;;;18.20;99.90;;;;;;5055136;28;20071;-80
2023/07/20 07:55:58;;;;;;;6.78;1.70;;;18.20;99.90;;;;;;5036123;28;20077;-80
2023/07/20 07:58:24;;;;;;;4.60;1.50;;;18.20;99.90;;;;;;5034567;28;20473;-80
2023/07/20 08:00:49;;;;;;;6.28;1.70;;;18.30;99.90;;;;;;5035013;28;20187;-79
2023/07/20 08:03:15;;;;;;;4.20;1.50;;;18.60;99.90;;;;;;5017734;28;20083;-80
2023/07/20 08:05:41;;;;;;;5.72;1.77;;;18.30;99.90;;;;;;5034200;28;20103;-80
2023/07/20 08:08:08;;;;;;;5.18;1.92;;;18.50;99.90;;;;;;5016981;28;20045;-80
2023/07/20 08:10:34;;;;;;;5.57;1.55;;;18.70;99.90;;;;;;5017258;28;20045;-80
2023/07/20 08:12:59;;;;;;;5.97;1.73;;;18.60;99.90;;;;;;5015808;28;20460;-80
2023/07/20 08:15:25;;;;;;;6.28;1.50;;;18.50;99.90;;;;;;5034975;28;20116;-79
2023/07/20 08:17:51;;;;;;;5.95;1.67;;;18.60;99.90;;;;;;5034814;28;20072;-80
2023/07/20 08:20:18;;;;;;;5.57;1.60;;;18.70;99.90;;;;;;5033761;28;20045;-80
2023/07/20 08:22:43;;;;;;;7.07;1.88;;;18.70;99.90;;;;;;5033246;28;20067;-80
2023/07/20 08:25:10;;;;;;;4.00;1.50;;;18.60;99.90;;;;;;5034461;28;20045;-79
2023/07/20 08:27:37;;;;;;;6.32;1.85;;;18.40;99.90;;;;;;5015895;28;20049;-80
2023/07/20 08:30:04;;;;;;;5.93;1.80;;;18.10;99.90;;;;;;5034555;28;20125;-81
2023/07/20 08:32:30;;;;;;;5.38;1.60;;;18.00;99.90;;;;;;5016969;28;20088;-79
2023/07/20 08:34:55;;;;;;;5.60;1.80;;;18.10;99.90;;;;;;5033980;28;20500;-79
2023/07/20 08:37:22;;;;;;;4.82;1.50;;;18.50;99.90;;;;;;5034702;28;20509;-79
2023/07/20 08:39:48;;;;;;;6.75;1.80;;;18.70;99.90;;;;;;5033925;28;20056;-81
2023/07/20 08:42:14;;;;;;;4.78;1.60;;;18.70;99.90;;;;;;5033312;28;20045;-80
2023/07/20 08:44:42;;;;;;;5.55;1.88;;;18.60;99.90;;;;;;5033713;28;20037;-80
2023/07/20 08:47:09;;;;;;;4.82;1.42;;;18.80;99.90;;;;;;5033879;28;20041;-80
2023/07/20 08:49:35;;;;;;;6.43;1.60;;;18.90;99.90;;;;;;5015323;28;20057;-81
2023/07/20 08:52:03;;;;;;;5.03;1.60;;;19.20;99.90;;;;;;5016269;28;20512;-81
2023/07/20 08:54:32;;;;;;;3.60;1.50;;;19.20;99.90;;;;;;5033314;28;20137;-81
2023/07/20 08:57:02;;;;;;;4.55;1.60;;;19.20;99.90;;;;;;5016105;28;20088;-81
2023/07/20 08:59:29;;;;;;;5.20;1.60;;;19.20;99.90;;;;;;5034038;28;20081;-81
2023/07/20 09:02:00;;;;;;;3.85;1.50;;;19.20;99.90;;;;;;5015447;28;20081;-81
2023/07/20 09:04:25;;;;;;;3.05;1.42;;;19.40;99.90;;;;;;5016296;28;20053;-80
2023/07/20 09:06:51;;;;;;;4.35;1.50;;;19.40;99.90;;;;;;5015666;28;20046;-81
2023/07/20 09:09:17;;;;;;;7.15;1.60;;;19.40;99.90;;;;;;5033330;28;20393;-81
2023/07/20 09:11:46;;;;;;;3.83;1.50;;;19.50;99.90;;;;;;5015679;28;20038;-80
2023/07/20 09:14:11;;;;;;;4.85;1.60;;;19.60;99.90;;;;;;5033866;28;20041;-80
2023/07/20 09:16:54;;;;;;;4.57;1.58;;;19.60;99.90;;;;;;5032940;28;20099;-80
2023/07/20 09:19:20;;;;;;;5.95;1.42;;;19.70;99.90;;;;;;5033518;28;20537;-80
2023/07/20 09:21:48;;;;;;;6.00;1.65;;;19.90;99.90;;;;;;5015323;28;20112;-79
2023/07/20 09:24:14;;;;;;;3.85;1.50;;;19.70;99.90;;;;;;5015045;28;20068;-80
2023/07/20 09:26:50;;;;;;;5.25;1.50;;;19.80;99.90;;;;;;5033102;28;20049;-79
2023/07/20 09:29:20;;;;;;;3.92;1.45;;;19.70;99.90;;;;;;5033529;28;20042;-80
2023/07/20 09:32:02;;;;;;;4.88;1.92;;;19.80;99.90;;;;;;5013960;28;20561;-79
2023/07/20 09:34:31;;;;;;;5.25;1.60;;;20.00;99.00;;;;;;5033900;28;20068;-80
2023/07/20 09:36:58;;;;;;;4.75;1.50;;;20.00;99.90;;;;;;5015448;28;20047;-81
2023/07/20 09:39:24;;;;;;;5.90;1.55;;;20.20;99.90;;;;;;5015775;28;20104;-80
2023/07/20 09:41:51;;;;;;;3.33;1.40;;;20.10;99.90;;;;;;5033012;28;20045;-80
2023/07/20 09:44:17;;;;;;;3.75;1.50;;;20.20;99.90;;;;;;5014719;28;20041;-80
2023/07/20 09:46:46;;;;;;;5.95;1.50;;;20.40;99.90;;;;;;5015102;28;20045;-80
2023/07/20 09:49:12;;;;;;;5.07;1.50;;;20.60;99.50;;;;;;5033163;28;20400;-81
2023/07/20 09:51:38;;;;;;;5.38;1.42;;;20.60;99.00;;;;;;5031888;28;20117;-80
2023/07/20 09:54:04;;;;;;;3.55;1.48;;;20.70;98.60;;;;;;5035731;28;20044;-80
2023/07/20 09:56:30;;;;;;;3.17;1.50;;;20.60;98.30;;;;;;5043455;28;20389;-80
2023/07/20 09:58:56;;;;;;;3.08;1.40;;;20.60;98.20;;;;;;5034354;28;20041;-82
2023/07/20 10:01:26;;;;;;;2.75;1.45;;;20.70;98.00;;;;;;5014973;28;20073;-81
2023/07/20 10:03:54;;;;;;;4.15;1.55;;;20.80;98.20;;;;;;5032523;28;20081;-81
2023/07/20 10:06:24;;;;;;;5.40;1.67;;;20.70;98.20;;;;;;5014391;28;20049;-81
2023/07/20 10:08:58;;;;;;;2.72;1.30;;;20.60;97.30;;;;;;5014659;28;20478;-81
2023/07/20 10:11:29;;;;;;;2.15;1.30;;;20.90;98.00;;;;;;5014670;28;20041;-81
2023/07/20 10:13:58;;;;;;;4.47;1.60;;;21.00;95.60;;;;;;5017883;28;20493;-80
2023/07/20 10:16:35;;;;;;;4.43;1.60;;;21.20;97.20;;;;;;5017420;28;20033;-80
2023/07/20 10:19:07;;;;;;;4.75;1.60;;;21.40;97.00;;;;;;5044867;28;20375;-83
2023/07/20 10:21:37;;;;;;;3.10;1.33;;;21.40;96.40;;;;;;5018529;28;20049;-81
2023/07/20 10:24:03;;;;;;;4.43;1.50;;;21.20;96.50;;;;;;5032362;28;20038;-81
2023/07/20 10:26:29;;;;;;;4.25;1.45;;;21.50;96.70;;;;;;5013920;28;20128;-81
2023/07/20 10:28:56;;;;;;;4.43;1.50;;;21.80;96.40;;;;;;5014809;28;20576;-81
2023/07/20 10:31:23;;;;;;;3.20;1.50;;;21.90;95.90;;;;;;5015003;28;20058;-81
2023/07/20 10:33:50;;;;;;;4.03;1.60;;;21.60;95.40;;;;;;5031643;28;20050;-80
2023/07/20 10:36:16;;;;;;;5.05;1.58;;;21.50;95.40;;;;;;5014650;28;20045;-81
2023/07/20 10:38:45;;;;;;;6.57;1.60;;;21.30;95.30;;;;;;5014760;28;20060;-81
2023/07/20 10:41:39;;;;;;;3.72;1.40;;;21.00;95.70;;;;;;5013575;28;20079;-80
2023/07/20 10:44:08;;;;;;;3.30;1.40;;;21.10;95.10;;;;;;5017325;28;20120;-81
2023/07/20 10:46:39;;;;;;;4.10;1.40;;;21.00;95.20;;;;;;5018791;28;20033;-80
2023/07/20 10:49:10;;;;;;;5.25;1.50;;;21.00;93.60;;;;;;5035723;28;20053;-80
2023/07/20 10:51:42;;;;;;;2.78;1.42;;;20.90;94.70;;;;;;5017712;28;20046;-80
2023/07/20 10:54:17;;;;;;;6.05;1.50;;;21.20;94.80;;;;;;5036049;28;20053;-81
2023/07/20 10:56:44;;;;;;;3.88;1.50;;;21.40;94.10;;;;;;5035843;28;20120;-82
2023/07/20 10:59:20;;;;;;;5.18;1.63;;;21.60;95.60;;;;;;5018661;28;20056;-82
2023/07/20 11:01:47;;;;;;;4.38;1.60;;;21.60;95.00;;;;;;5035331;28;20451;-82
2023/07/20 11:04:13;;;;;;;4.50;1.38;;;21.80;95.60;;;;;;5018531;28;20087;-81
2023/07/20 11:06:43;;;;;;;6.10;1.63;;;21.70;95.80;;;;;;5018392;28;20060;-81
2023/07/20 11:09:11;;;;;;;5.13;1.70;;;21.60;96.30;;;;;;5035461;28;20053;-81
2023/07/20 11:11:38;;;;;;;8.75;2.20;;;21.20;97.30;;;;;;5018091;28;20045;-80
2023/07/20 11:14:06;;;;;;;4.75;1.77;;;21.00;98.00;;;;;;5018560;28;20497;-81
2023/07/20 11:16:39;;;;;;;4.93;1.70;;;20.60;98.70;;;;;;5017192;28;20095;-81
2023/07/20 11:19:14;;;;;;;5.82;1.70;;;20.60;99.20;;;;;;5018705;28;20054;-82
2023/07/20 11:21:42;;;;;;;4.20;1.60;;;20.40;99.60;;;;;;5035430;28;20037;-82
2023/07/20 11:24:09;;;;;;;6.10;1.73;;;20.30;99.60;;;;;;5035143;28;20084;-82
2023/07/20 11:26:47;;;;;;;5.90;1.70;;;20.20;99.70;;;;;;5017386;28;20060;-82
2023/07/20 11:29:14;;;;;;;4.97;1.77;;;20.10;99.50;;;;;;5017464;28;20102;-82
2023/07/20 11:31:41;;;;;;;5.25;1.70;;;20.00;99.90;;;;;;5035429;28;20045;-82
2023/07/20 11:34:15;;;;;;;4.78;1.77;;;20.10;99.90;;;;;;5035814;28;20057;-81
2023/07/20 11:36:44;;;;;;;5.18;1.70;;;20.00;99.90;;;;;;5033985;28;20508;-82
2023/07/20 11:39:10;;;;;;;3.50;1.48;;;20.30;99.90;;;;;;5018719;28;20042;-82
2023/07/20 11:41:38;;;;;;;5.57;1.77;;;20.40;99.90;;;;;;5012439;28;20041;-82
2023/07/20 11:44:06;;;;;;;4.20;1.63;;;20.70;99.90;;;;;;5017060;28;20053;-81
2023/07/20 11:46:32;;;;;;;3.95;1.60;;;20.50;99.90;;;;;;5028202;28;20041;-82
2023/07/20 11:49:02;;;;;;;3.75;1.52;;;20.40;99.90;;;;;;5055399;28;20037;-82
2023/07/20 11:51:31;;;;;;;4.30;1.50;;;20.20;99.90;;;;;;5036488;28;20049;-81
2023/07/20 11:53:58;;;;;;;6.10;1.70;;;19.90;99.30;;;;;;5054458;28;20052;-81
2023/07/20 11:56:25;;;;;;;3.25;1.60;;;19.90;99.80;;;;;;5036597;28;20040;-82
2023/07/20 11:58:50;;;;;;;5.82;1.80;;;19.90;99.80;;;;;;5054283;28;20037;-82
2023/07/20 12:01:17;;;;;;;5.65;1.70;;;20.00;99.40;;;;;;5055149;28;20113;-82
2023/07/20 12:03:43;;;;;;;6.25;1.73;;;20.20;99.20;;;;;;5054696;28;20112;-82
2023/07/20 12:06:10;;;;;;;6.28;1.90;;;20.20;99.20;;;;;;5036415;28;20099;-82
2023/07/20 12:08:40;;;;;;;4.60;1.60;;;20.20;99.20;;;;;;5054449;28;20080;-82
2023/07/20 12:11:07;;;;;;;4.32;1.50;;;20.10;98.60;;;;;;5036544;28;20071;-82
2023/07/20 12:13:45;;;;;;;4.00;1.60;;;20.30;99.30;;;;;;5036175;28;20404;-82
2023/07/20 12:16:15;;;;;;;6.57;1.80;;;20.40;97.90;;;;;;5054568;28;20493;-82
2023/07/20 12:18:42;;;;;;;5.68;1.77;;;20.70;98.50;;;;;;5036107;28;20053;-82
2023/07/20 12:21:08;;;;;;;5.15;1.90;;;20.80;99.00;;;;;;5054448;28;20044;-81
2023/07/20 12:23:42;;;;;;;7.63;1.80;;;20.90;98.90;;;;;;5054343;28;20481;-82
2023/07/20 12:26:09;;;;;;;;;;;21.20;98.60;;;;;;5036284;28;20151;-82
2023/07/20 12:28:42;;;;;;;7.07;1.90;;;21.40;98.80;;;;;;5036363;28;19925;-82
2023/07/20 12:31:10;;;;;;;8.88;1.98;;;21.60;99.00;;;;;;5054753;28;20087;-82
2023/07/20 12:33:39;;;;;;;5.93;2.10;;;21.90;98.90;;;;;;5053655;28;20097;-82
2023/07/20 12:36:05;;;;;;;11.23;2.75;;;22.20;98.70;;;;;;5036397;28;20064;-82
2023/07/20 12:38:33;;;;;;;7.07;1.92;;;22.50;98.40;;;;;;5054426;28;20448;-82
2023/07/20 12:41:00;;;;;;;7.18;1.80;;;22.80;98.20;;;;;;5035171;28;20037;-82
2023/07/20 12:43:26;;;;;;;5.75;2.00;;;22.80;97.90;;;;;;5036593;28;20052;-82
2023/07/20 12:45:52;;;;;;;6.30;2.13;;;22.30;97.50;;;;;;5052432;28;20045;-82
2023/07/20 12:48:18;;;;;;;6.47;1.90;;;22.00;97.40;;;;;;5035462;28;20052;-82